Time;durP1;ratioP1;P1;durP2;ratioP2;P2;SDS_P1;SDS_P2;PMS_P1;PMS_P2;Temp;Humidity;BMP_temperature;BMP_pressure;BME280_temperature;BME280_humidity;BME280_pressure;Samples;Min_cycle;Max_cycle;Signal;HPM_P1;HPM_P2
2022/04/11 00:00:36;;;;;;;0.47;0.47;;;4.20;99.90;;;;;;5255497;28;20338;-73
2022/04/11 00:03:12;;;;;;;0.80;0.80;;;4.30;99.90;;;;;;5225990;28;20111;-73
2022/04/11 00:05:47;;;;;;;0.57;0.57;;;4.30;99.90;;;;;;5249451;28;20134;-74
2022/04/11 00:08:20;;;;;;;1.00;1.00;;;4.30;99.90;;;;;;5244761;28;20026;-73
2022/04/11 00:10:51;;;;;;;0.50;0.50;;;4.20;99.90;;;;;;5226324;28;20032;-73
2022/04/11 00:13:22;;;;;;;0.70;0.70;;;4.10;99.90;;;;;;5244153;28;20017;-73
2022/04/11 00:15:59;;;;;;;0.40;0.40;;;4.20;99.90;;;;;;5225133;28;20055;-73
2022/04/11 00:18:31;;;;;;;0.60;0.60;;;4.30;99.90;;;;;;5225810;28;20028;-75
2022/04/11 00:21:03;;;;;;;0.60;0.60;;;4.30;99.90;;;;;;5224741;28;20039;-73
2022/04/11 00:23:34;;;;;;;0.40;0.40;;;4.40;99.90;;;;;;5209118;28;20033;-74
2022/04/11 00:26:07;;;;;;;0.60;0.60;;;4.30;99.90;;;;;;5243463;28;20027;-73
2022/04/11 00:28:39;;;;;;;0.60;0.60;;;4.30;99.90;;;;;;5225631;28;20028;-73
2022/04/11 00:31:16;;;;;;;0.65;0.65;;;4.30;99.90;;;;;;5243937;28;20017;-73
2022/04/11 00:33:47;;;;;;;0.60;0.60;;;4.20;99.90;;;;;;5242911;28;20030;-72
2022/04/11 00:36:22;;;;;;;0.70;0.70;;;4.10;99.90;;;;;;5239680;28;20044;-73
2022/04/11 00:38:53;;;;;;;0.70;0.70;;;4.00;99.90;;;;;;5264371;28;20028;-73
2022/04/11 00:41:28;;;;;;;0.50;0.50;;;4.00;99.90;;;;;;5253237;28;20024;-74
2022/04/11 00:44:04;;;;;;;;;;;4.10;99.90;;;;;;5225226;28;20029;-73
2022/04/11 00:46:37;;;;;;;0.45;0.45;;;4.10;99.90;;;;;;5242681;28;20446;-72
2022/04/11 00:49:09;;;;;;;0.40;0.40;;;4.10;99.90;;;;;;5243318;28;20338;-73
2022/04/11 00:51:44;;;;;;;0.60;0.60;;;4.10;99.90;;;;;;5225224;28;20040;-73
2022/04/11 00:54:18;;;;;;;0.45;0.45;;;4.10;99.90;;;;;;5243642;28;20016;-72
2022/04/11 00:56:54;;;;;;;0.88;0.88;;;4.20;99.90;;;;;;5242046;28;20036;-73
2022/04/11 00:59:25;;;;;;;1.13;1.13;;;4.20;99.90;;;;;;5210044;28;20039;-73
2022/04/11 01:01:57;;;;;;;0.60;0.60;;;4.20;99.90;;;;;;5242918;28;20008;-73
2022/04/11 01:04:31;;;;;;;0.60;0.60;;;4.30;99.90;;;;;;5231886;28;20029;-73
2022/04/11 01:07:03;;;;;;;0.85;0.85;;;4.20;99.90;;;;;;5242472;28;20570;-72
2022/04/11 01:09:35;;;;;;;0.73;0.73;;;4.20;99.90;;;;;;5225464;28;20330;-73
2022/04/11 01:12:11;;;;;;;0.68;0.68;;;4.30;99.90;;;;;;5242737;28;20047;-72
2022/04/11 01:14:44;;;;;;;0.68;0.68;;;4.30;99.90;;;;;;5237956;28;20034;-73
2022/04/11 01:17:21;;;;;;;0.70;0.70;;;4.30;99.90;;;;;;5240583;28;20032;-73
2022/04/11 01:19:57;;;;;;;0.47;0.47;;;4.20;99.90;;;;;;5263347;28;20324;-73
2022/04/11 01:22:29;;;;;;;0.63;0.63;;;4.30;99.90;;;;;;5261565;28;20052;-72
2022/04/11 01:25:06;;;;;;;0.50;0.50;;;4.30;99.90;;;;;;5245166;28;20038;-73
2022/04/11 01:27:46;;;;;;;0.40;0.40;;;4.30;99.90;;;;;;5221158;28;20039;-72
2022/04/11 01:30:18;;;;;;;0.80;0.80;;;4.30;99.90;;;;;;5251885;28;20027;-72
2022/04/11 01:32:54;;;;;;;0.55;0.55;;;4.30;99.90;;;;;;5242317;28;20058;-73
2022/04/11 01:35:27;;;;;;;0.60;0.60;;;4.30;99.90;;;;;;5241840;28;20336;-74
2022/04/11 01:38:03;;;;;;;0.40;0.40;;;4.20;99.90;;;;;;5242595;28;20042;-73
2022/04/11 01:40:48;;;;;;;0.68;0.68;;;4.10;99.90;;;;;;5242582;28;20041;-73
2022/04/11 01:43:21;;;;;;;0.60;0.60;;;4.10;99.90;;;;;;5242259;28;20258;-72
2022/04/11 01:45:56;;;;;;;1.20;1.10;;;4.00;99.90;;;;;;5228789;28;20050;-73
2022/04/11 01:48:30;;;;;;;0.60;0.60;;;4.10;99.90;;;;;;5246502;28;20031;-73
2022/04/11 01:51:06;;;;;;;0.40;0.40;;;4.00;99.90;;;;;;5228982;28;20481;-73
2022/04/11 01:53:44;;;;;;;0.52;0.52;;;4.10;99.90;;;;;;5243742;28;20044;-73
2022/04/11 01:56:18;;;;;;;1.70;1.63;;;4.10;99.90;;;;;;5251662;28;20036;-73
2022/04/11 01:58:57;;;;;;;0.50;0.50;;;4.00;99.90;;;;;;5207842;28;20043;-73
2022/04/11 02:01:29;;;;;;;0.43;0.43;;;4.00;99.90;;;;;;5243735;28;20028;-74
2022/04/11 02:04:00;;;;;;;0.50;0.50;;;4.00;99.90;;;;;;5252909;28;20058;-73
2022/04/11 02:06:37;;;;;;;0.80;0.80;;;4.00;99.90;;;;;;5252572;28;20268;-73
2022/04/11 02:09:11;;;;;;;0.70;0.70;;;4.00;99.90;;;;;;5250690;28;20028;-72
2022/04/11 02:11:45;;;;;;;0.80;0.80;;;3.90;99.90;;;;;;5228048;28;20241;-73
2022/04/11 02:14:17;;;;;;;0.88;0.88;;;4.00;99.90;;;;;;5211504;28;20086;-73
2022/04/11 02:16:56;;;;;;;0.52;0.52;;;4.00;99.90;;;;;;5245463;28;20055;-73
2022/04/11 02:19:33;;;;;;;0.70;0.70;;;4.00;99.90;;;;;;5245388;28;20032;-73
2022/04/11 02:22:07;;;;;;;0.40;0.40;;;4.00;99.90;;;;;;5245356;28;20031;-74
2022/04/11 02:24:41;;;;;;;0.50;0.50;;;4.00;99.90;;;;;;5245344;28;20016;-74
2022/04/11 02:27:18;;;;;;;0.55;0.55;;;4.10;99.90;;;;;;5264490;28;20205;-73
2022/04/11 02:29:52;;;;;;;0.40;0.40;;;4.10;99.90;;;;;;5246926;28;20012;-74
2022/04/11 02:32:26;;;;;;;0.70;0.70;;;4.10;99.90;;;;;;5245954;28;20032;-74
2022/04/11 02:35:00;;;;;;;0.60;0.60;;;4.10;99.90;;;;;;5245960;28;20375;-73
2022/04/11 02:37:36;;;;;;;0.95;0.95;;;4.10;99.90;;;;;;5228442;28;20032;-74
2022/04/11 02:40:15;;;;;;;1.75;0.93;;;4.00;99.90;;;;;;5227737;28;20031;-73
2022/04/11 02:42:48;;;;;;;0.80;0.80;;;4.00;99.90;;;;;;5245031;28;20182;-73
2022/04/11 02:45:24;;;;;;;3.85;3.53;;;3.90;99.90;;;;;;5248227;28;20032;-73
2022/04/11 02:47:59;;;;;;;0.50;0.50;;;3.90;99.90;;;;;;5201715;28;20028;-73
2022/04/11 02:50:30;;;;;;;0.50;0.50;;;3.90;99.90;;;;;;5210602;28;20040;-73
2022/04/11 02:53:05;;;;;;;0.57;0.57;;;3.90;99.90;;;;;;5226863;28;20035;-73
2022/04/11 02:55:41;;;;;;;0.60;0.60;;;3.90;99.90;;;;;;5230562;28;20051;-74
2022/04/11 02:58:15;;;;;;;0.40;0.40;;;3.90;99.90;;;;;;5265438;28;20046;-74
2022/04/11 03:00:48;;;;;;;0.60;0.60;;;3.90;99.90;;;;;;5247364;28;20032;-74
2022/04/11 03:03:25;;;;;;;0.57;0.57;;;3.90;99.90;;;;;;5247108;28;20032;-73
2022/04/11 03:05:58;;;;;;;0.75;0.75;;;3.80;99.90;;;;;;5269427;28;20052;-73
2022/04/11 03:08:30;;;;;;;0.50;0.50;;;3.80;99.90;;;;;;5218203;28;20282;-72
2022/04/11 03:11:04;;;;;;;0.57;0.57;;;3.90;99.90;;;;;;5244554;28;20032;-73
2022/04/11 03:13:35;;;;;;;1.45;1.42;;;3.90;99.90;;;;;;5244317;28;20024;-73
2022/04/11 03:16:12;;;;;;;0.68;0.68;;;3.90;99.90;;;;;;5226827;28;20349;-73
2022/04/11 03:18:45;;;;;;;0.60;0.60;;;3.80;99.90;;;;;;5244903;28;20384;-73
2022/04/11 03:21:19;;;;;;;0.47;0.47;;;3.90;99.90;;;;;;5227487;28;20039;-73
2022/04/11 03:23:50;;;;;;;1.13;1.13;;;3.90;99.90;;;;;;5225801;28;20036;-74
2022/04/11 03:26:22;;;;;;;1.08;1.08;;;3.90;99.90;;;;;;5244133;28;20028;-73
2022/04/11 03:28:58;;;;;;;0.63;0.63;;;4.00;99.90;;;;;;5226794;28;20233;-73
2022/04/11 03:31:33;;;;;;;0.50;0.50;;;4.10;99.90;;;;;;5244113;28;20034;-75
2022/04/11 03:34:07;;;;;;;0.65;0.65;;;4.10;99.90;;;;;;5227858;28;20035;-73
2022/04/11 03:36:43;;;;;;;0.40;0.40;;;3.80;99.90;;;;;;5244189;28;20042;-74
2022/04/11 03:39:17;;;;;;;0.63;0.63;;;3.60;99.90;;;;;;5242617;28;20464;-73
2022/04/11 03:41:51;;;;;;;0.60;0.60;;;3.50;99.90;;;;;;5244851;28;20016;-73
2022/04/11 03:44:28;;;;;;;0.88;0.88;;;3.70;99.90;;;;;;5244329;28;20372;-73
2022/04/11 03:47:05;;;;;;;0.70;0.70;;;3.90;99.90;;;;;;5226112;28;20051;-73
2022/04/11 03:49:37;;;;;;;0.57;0.57;;;4.10;99.90;;;;;;5210034;28;20044;-74
2022/04/11 03:52:09;;;;;;;1.63;1.63;;;4.20;99.90;;;;;;5226140;28;20035;-74
2022/04/11 03:54:40;;;;;;;0.50;0.50;;;4.10;99.90;;;;;;5244218;28;20219;-73
2022/04/11 03:57:14;;;;;;;0.68;0.68;;;4.00;99.90;;;;;;5243122;28;20039;-73
2022/04/11 03:59:47;;;;;;;0.90;0.90;;;3.90;99.90;;;;;;5263938;28;20038;-73
2022/04/11 04:02:19;;;;;;;0.63;0.63;;;3.80;99.90;;;;;;5201744;28;20028;-74
2022/04/11 04:04:52;;;;;;;0.40;0.40;;;3.80;99.90;;;;;;5203654;28;20499;-73
2022/04/11 04:07:27;;;;;;;0.55;0.55;;;3.80;99.90;;;;;;5243007;28;20357;-73
2022/04/11 04:09:58;;;;;;;0.93;0.93;;;3.80;99.90;;;;;;5243632;28;20058;-73
2022/04/11 04:12:30;;;;;;;0.60;0.60;;;3.80;99.90;;;;;;5225782;28;20226;-74
2022/04/11 04:15:02;;;;;;;0.60;0.60;;;3.70;99.90;;;;;;5225641;28;20040;-73
2022/04/11 04:17:33;;;;;;;0.52;0.52;;;3.80;99.90;;;;;;5226021;28;20021;-73
2022/04/11 04:20:09;;;;;;;0.60;0.60;;;4.00;99.90;;;;;;5244337;28;20525;-73
2022/04/11 04:22:47;;;;;;;0.40;0.40;;;4.00;99.90;;;;;;5226788;28;20028;-74
2022/04/11 04:25:21;;;;;;;0.70;0.70;;;3.90;99.90;;;;;;5246775;28;20032;-73
2022/04/11 04:27:54;;;;;;;0.75;0.75;;;3.90;99.90;;;;;;5230505;28;20521;-73
2022/04/11 04:30:31;;;;;;;0.57;0.57;;;3.90;99.90;;;;;;5244638;28;20020;-73
2022/04/11 04:33:08;;;;;;;1.73;1.55;;;4.10;99.90;;;;;;5244451;28;20020;-73
2022/04/11 04:35:43;;;;;;;0.50;0.50;;;4.20;99.90;;;;;;5243853;28;20215;-73
2022/04/11 04:38:22;;;;;;;0.43;0.43;;;4.40;99.90;;;;;;5244871;28;20032;-73
2022/04/11 04:40:53;;;;;;;0.50;0.50;;;4.40;99.90;;;;;;5226310;28;20569;-73
2022/04/11 04:43:26;;;;;;;1.30;1.30;;;4.50;99.90;;;;;;5226380;28;20035;-75
2022/04/11 04:45:57;;;;;;;0.70;0.70;;;4.60;99.90;;;;;;5254770;28;20033;-74
2022/04/11 04:48:33;;;;;;;0.50;0.50;;;4.60;99.90;;;;;;5248194;28;20028;-73
2022/04/11 04:51:10;;;;;;;0.98;0.98;;;4.70;99.90;;;;;;5209224;28;20036;-74
2022/04/11 04:53:43;;;;;;;0.50;0.50;;;4.70;99.90;;;;;;5244756;28;20061;-73
2022/04/11 04:56:20;;;;;;;0.40;0.40;;;4.80;99.90;;;;;;5237289;28;20043;-73
2022/04/11 04:58:54;;;;;;;0.40;0.40;;;4.80;99.90;;;;;;5266103;28;20233;-73
2022/04/11 05:01:31;;;;;;;0.65;0.65;;;4.90;99.90;;;;;;5230625;28;20047;-75
2022/04/11 05:04:05;;;;;;;0.40;0.40;;;4.90;99.90;;;;;;5225354;28;20028;-73
2022/04/11 05:06:36;;;;;;;0.63;0.63;;;4.90;99.90;;;;;;5232216;28;20049;-74
2022/04/11 05:09:13;;;;;;;0.60;0.60;;;5.00;99.90;;;;;;5225889;28;20239;-73
2022/04/11 05:11:46;;;;;;;0.52;0.52;;;5.10;99.90;;;;;;5250806;28;20028;-73
2022/04/11 05:14:19;;;;;;;0.83;0.83;;;5.20;99.90;;;;;;5246755;28;20028;-73
2022/04/11 05:16:50;;;;;;;0.80;0.80;;;5.30;99.90;;;;;;5265224;28;20610;-73
2022/04/11 05:19:23;;;;;;;0.93;0.93;;;5.40;99.90;;;;;;5267334;28;20151;-74
2022/04/11 05:21:57;;;;;;;0.65;0.65;;;5.30;99.90;;;;;;5251691;28;20038;-74
2022/04/11 05:24:32;;;;;;;0.43;0.43;;;5.20;99.90;;;;;;5251688;28;20030;-73
2022/04/11 05:27:07;;;;;;;1.02;1.02;;;5.20;99.90;;;;;;5269013;28;20359;-73
2022/04/11 05:29:38;;;;;;;1.23;1.00;;;5.40;99.90;;;;;;5233919;28;20376;-73
2022/04/11 05:32:10;;;;;;;0.70;0.70;;;5.40;99.90;;;;;;5237764;28;20028;-74
2022/04/11 05:34:45;;;;;;;0.57;0.57;;;5.40;99.90;;;;;;5230309;28;20505;-73
2022/04/11 05:37:19;;;;;;;0.57;0.57;;;5.40;99.90;;;;;;5248406;28;20044;-74
2022/04/11 05:39:50;;;;;;;;;;;5.50;99.90;;;;;;5229955;28;20047;-74
2022/04/11 05:42:25;;;;;;;0.70;0.70;;;5.50;99.90;;;;;;5230302;28;19910;-73
2022/04/11 05:44:59;;;;;;;;;;;5.60;99.90;;;;;;5231999;28;20030;-74
2022/04/11 05:47:33;;;;;;;0.40;0.40;;;5.60;99.90;;;;;;5248301;28;19905;-73
2022/04/11 05:50:08;;;;;;;1.38;1.35;;;5.60;99.90;;;;;;5214770;28;20032;-74
2022/04/11 05:52:42;;;;;;;0.50;0.50;;;5.50;99.90;;;;;;5227133;28;20044;-75
2022/04/11 05:55:13;;;;;;;0.60;0.60;;;5.60;99.90;;;;;;5231972;28;20031;-73
2022/04/11 05:57:50;;;;;;;0.60;0.60;;;5.60;99.90;;;;;;5266241;28;20024;-73
2022/04/11 06:00:26;;;;;;;0.70;0.70;;;5.70;99.90;;;;;;5229990;28;20205;-74
2022/04/11 06:03:01;;;;;;;0.75;0.75;;;5.90;99.90;;;;;;5247358;28;20028;-73
2022/04/11 06:05:36;;;;;;;0.90;0.90;;;5.90;99.90;;;;;;5256226;28;20046;-73
2022/04/11 06:08:07;;;;;;;0.70;0.70;;;5.90;99.90;;;;;;5224461;28;20028;-73
2022/04/11 06:10:44;;;;;;;0.68;0.68;;;6.00;99.90;;;;;;5232300;28;20047;-73
2022/04/11 06:13:18;;;;;;;1.95;0.90;;;6.00;99.90;;;;;;5246763;28;20058;-73
2022/04/11 06:15:50;;;;;;;0.60;0.60;;;6.10;99.90;;;;;;5229070;28;20050;-73
2022/04/11 06:18:21;;;;;;;0.40;0.40;;;6.00;99.90;;;;;;5215383;28;20346;-73
2022/04/11 06:20:52;;;;;;;0.63;0.63;;;6.10;99.90;;;;;;5226878;28;20028;-73
2022/04/11 06:23:27;;;;;;;0.85;0.85;;;6.10;99.90;;;;;;5208739;28;20045;-73
2022/04/11 06:26:00;;;;;;;0.80;0.80;;;6.10;99.90;;;;;;5226072;28;20063;-74
2022/04/11 06:28:33;;;;;;;0.55;0.55;;;6.10;99.90;;;;;;5227912;28;20222;-73
2022/04/11 06:31:04;;;;;;;0.50;0.50;;;6.10;99.90;;;;;;5244789;28;20384;-73
2022/04/11 06:33:39;;;;;;;0.50;0.50;;;6.30;99.90;;;;;;5228795;28;20348;-73
2022/04/11 06:36:14;;;;;;;0.70;0.70;;;6.30;99.90;;;;;;5256703;28;20454;-74
2022/04/11 06:38:49;;;;;;;0.85;0.85;;;6.50;99.90;;;;;;5268275;28;20423;-73
2022/04/11 06:41:26;;;;;;;0.73;0.73;;;6.40;99.90;;;;;;5267474;28;20044;-73
2022/04/11 06:44:02;;;;;;;0.43;0.43;;;6.40;99.90;;;;;;5268009;28;20054;-73
2022/04/11 06:46:38;;;;;;;0.65;0.65;;;6.80;99.90;;;;;;5250581;28;20016;-74
2022/04/11 06:49:12;;;;;;;0.90;0.90;;;6.80;99.90;;;;;;5256034;28;20025;-74
2022/04/11 06:51:46;;;;;;;0.80;0.80;;;6.70;99.90;;;;;;5234800;28;20024;-73
2022/04/11 06:54:17;;;;;;;0.63;0.63;;;6.60;99.90;;;;;;5247482;28;20059;-75
2022/04/11 06:56:51;;;;;;;0.52;0.52;;;6.70;99.90;;;;;;5251441;28;20032;-74
2022/04/11 06:59:25;;;;;;;0.70;0.70;;;6.90;99.90;;;;;;5245626;28;20012;-73
2022/04/11 07:01:57;;;;;;;;;;;6.90;99.90;;;;;;5244064;28;20334;-75
2022/04/11 07:04:30;;;;;;;0.80;0.80;;;7.20;99.90;;;;;;5218378;28;19921;-73
2022/04/11 07:07:07;;;;;;;0.50;0.50;;;7.60;99.90;;;;;;5245342;28;20356;-73
2022/04/11 07:09:41;;;;;;;0.50;0.50;;;7.60;99.90;;;;;;5228815;28;20802;-73
2022/04/11 07:12:16;;;;;;;0.80;0.80;;;8.10;99.90;;;;;;5228323;28;20221;-74
2022/04/11 07:14:52;;;;;;;0.80;0.80;;;7.80;99.90;;;;;;5246842;28;20124;-75
2022/04/11 07:17:26;;;;;;;0.95;0.95;;;7.90;99.90;;;;;;5195577;28;20045;-73
2022/04/11 07:20:07;;;;;;;0.70;0.70;;;7.80;99.90;;;;;;5248764;28;20258;-73
2022/04/11 07:22:38;;;;;;;1.00;1.00;;;7.70;99.90;;;;;;5245282;28;20039;-73
2022/04/11 07:25:10;;;;;;;0.65;0.65;;;7.60;99.90;;;;;;5245651;28;20037;-74
2022/04/11 07:27:47;;;;;;;0.98;0.98;;;7.90;99.90;;;;;;5211391;28;20241;-73
2022/04/11 07:30:23;;;;;;;0.60;0.60;;;8.10;99.90;;;;;;5239334;28;20036;-73
2022/04/11 07:32:59;;;;;;;0.80;0.80;;;8.20;99.90;;;;;;5227468;28;20355;-73
2022/04/11 07:35:35;;;;;;;3.10;1.83;;;8.30;99.90;;;;;;5245608;28;20314;-73
2022/04/11 07:38:09;;;;;;;1.00;1.00;;;8.20;99.90;;;;;;5228284;28;20333;-75
2022/04/11 07:40:41;;;;;;;0.90;0.90;;;8.70;99.90;;;;;;5211270;28;20341;-74
2022/04/11 07:43:15;;;;;;;0.55;0.55;;;8.80;99.90;;;;;;5227228;28;20040;-72
2022/04/11 07:45:50;;;;;;;0.80;0.80;;;9.20;99.90;;;;;;5211058;28;20045;-74
2022/04/11 07:48:26;;;;;;;1.05;1.05;;;10.00;99.90;;;;;;5245672;28;20035;-73
2022/04/11 07:50:58;;;;;;;0.63;0.63;;;10.00;99.90;;;;;;5241639;28;20025;-74
2022/04/11 07:53:33;;;;;;;0.80;0.80;;;9.90;99.90;;;;;;5244465;28;20040;-74
2022/04/11 07:56:10;;;;;;;0.80;0.80;;;9.30;99.90;;;;;;5237235;28;20070;-74
2022/04/11 07:58:47;;;;;;;3.10;2.13;;;9.40;99.90;;;;;;5238953;28;20331;-74
2022/04/11 08:01:18;;;;;;;0.77;0.77;;;9.40;99.90;;;;;;5247371;28;20036;-75
2022/04/11 08:03:52;;;;;;;0.73;0.73;;;9.70;99.90;;;;;;5245547;28;20327;-74
2022/04/11 08:06:29;;;;;;;0.95;0.95;;;8.90;99.90;;;;;;5248180;28;20052;-74
2022/04/11 08:09:01;;;;;;;0.73;0.73;;;8.70;99.90;;;;;;5248129;28;20047;-73
2022/04/11 08:11:35;;;;;;;0.77;0.77;;;8.30;99.90;;;;;;5247297;28;20043;-73
2022/04/11 08:14:09;;;;;;;0.68;0.68;;;8.10;99.90;;;;;;5265686;28;20028;-74
2022/04/11 08:16:49;;;;;;;0.80;0.80;;;8.40;99.90;;;;;;5245502;28;20036;-74
2022/04/11 08:19:23;;;;;;;0.70;0.70;;;8.40;99.90;;;;;;5244314;28;20044;-75
2022/04/11 08:21:58;;;;;;;;;;;8.50;99.90;;;;;;5226974;28;20040;-74
2022/04/11 08:24:32;;;;;;;0.70;0.70;;;9.10;99.90;;;;;;5226371;28;19925;-74
2022/04/11 08:27:06;;;;;;;0.70;0.70;;;9.70;99.90;;;;;;5209481;28;20025;-74
2022/04/11 08:29:43;;;;;;;0.93;0.93;;;10.90;99.90;;;;;;5245109;28;20030;-74
2022/04/11 08:32:14;;;;;;;0.77;0.77;;;11.30;99.90;;;;;;5244657;28;20024;-73
2022/04/11 08:34:49;;;;;;;0.60;0.60;;;10.90;99.90;;;;;;5244897;28;20026;-74
2022/04/11 08:37:24;;;;;;;;;;;10.60;99.90;;;;;;5244729;28;20196;-75
2022/04/11 08:40:02;;;;;;;0.40;0.40;;;10.60;99.90;;;;;;5245046;28;19912;-75
2022/04/11 08:42:37;;;;;;;0.73;0.73;;;9.70;99.90;;;;;;5246155;28;20068;-74
2022/04/11 08:45:13;;;;;;;;;;;10.30;99.90;;;;;;5229667;28;20036;-74
2022/04/11 08:47:48;;;;;;;0.60;0.60;;;10.90;99.90;;;;;;5227009;28;19908;-74
2022/04/11 08:50:21;;;;;;;0.80;0.80;;;11.90;99.90;;;;;;5210271;28;20119;-75
2022/04/11 08:52:59;;;;;;;1.35;1.35;;;11.60;99.90;;;;;;5243237;28;20337;-74
2022/04/11 08:55:34;;;;;;;0.50;0.50;;;11.50;99.90;;;;;;5238946;28;20032;-74
2022/04/11 08:58:11;;;;;;;0.80;0.80;;;10.50;99.90;;;;;;5226268;28;20028;-74
2022/04/11 09:00:45;;;;;;;0.90;0.90;;;10.80;99.90;;;;;;5243927;28;20019;-74
2022/04/11 09:03:17;;;;;;;;;;;11.20;99.90;;;;;;5226758;28;20326;-75
2022/04/11 09:06:10;;;;;;;0.70;0.70;;;11.60;99.90;;;;;;5232970;28;19929;-74
2022/04/11 09:08:54;;;;;;;0.60;0.60;;;12.80;99.90;;;;;;5226826;28;20047;-75
2022/04/11 09:11:35;;;;;;;1.27;1.27;;;12.80;99.90;;;;;;5226067;28;20034;-74
2022/04/11 09:14:12;;;;;;;0.60;0.60;;;12.40;99.90;;;;;;5225853;28;20358;-75
2022/04/11 09:16:51;;;;;;;0.88;0.88;;;13.30;99.90;;;;;;5243110;28;20046;-76
2022/04/11 09:19:31;;;;;;;0.90;0.90;;;13.70;99.90;;;;;;5245230;28;20058;-74
2022/04/11 09:22:06;;;;;;;0.60;0.60;;;13.80;99.90;;;;;;5242555;28;20024;-74
2022/04/11 09:24:43;;;;;;;0.70;0.70;;;12.50;99.90;;;;;;5243794;28;20032;-74
2022/04/11 09:27:24;;;;;;;0.90;0.90;;;12.00;99.90;;;;;;5244148;28;20021;-74
2022/04/11 09:29:58;;;;;;;0.80;0.80;;;11.70;99.90;;;;;;5225699;28;20033;-75
2022/04/11 09:32:30;;;;;;;1.02;1.02;;;12.10;99.90;;;;;;5226800;28;20032;-74
2022/04/11 09:35:01;;;;;;;0.52;0.52;;;12.10;99.90;;;;;;5243467;28;20048;-74
2022/04/11 09:37:34;;;;;;;1.67;1.52;;;12.60;99.90;;;;;;5225692;28;20024;-74
2022/04/11 09:40:12;;;;;;;0.80;0.80;;;13.00;99.90;;;;;;5226031;28;20024;-75
2022/04/11 09:42:46;;;;;;;0.80;0.80;;;13.70;99.90;;;;;;5245489;28;20523;-75
2022/04/11 09:45:23;;;;;;;;;;;14.90;99.90;;;;;;5244672;28;20319;-75
2022/04/11 09:48:04;;;;;;;0.73;0.73;;;15.20;99.90;;;;;;5243433;28;19917;-75
2022/04/11 09:50:40;;;;;;;0.90;0.90;;;15.10;99.90;;;;;;5213363;28;20032;-74
2022/04/11 09:53:22;;;;;;;0.85;0.85;;;14.40;99.90;;;;;;5224488;28;20040;-74
2022/04/11 09:55:54;;;;;;;0.85;0.85;;;13.20;99.90;;;;;;5224519;28;20033;-75
2022/04/11 09:58:26;;;;;;;0.90;0.90;;;13.80;99.90;;;;;;5244442;28;20023;-75
2022/04/11 10:01:04;;;;;;;0.75;0.75;;;14.40;99.90;;;;;;5225891;28;20021;-76
2022/04/11 10:03:39;;;;;;;1.05;1.05;;;15.30;99.90;;;;;;5243467;28;20011;-74
2022/04/11 10:06:15;;;;;;;0.60;0.60;;;16.70;99.90;;;;;;5234786;28;20044;-75
2022/04/11 10:08:52;;;;;;;0.70;0.70;;;15.90;99.90;;;;;;5249041;28;20025;-75
2022/04/11 10:11:23;;;;;;;0.80;0.80;;;16.00;99.90;;;;;;5273779;28;20032;-75
2022/04/11 10:13:59;;;;;;;0.77;0.77;;;15.80;99.90;;;;;;5267350;28;20032;-74
2022/04/11 10:16:36;;;;;;;0.70;0.70;;;15.70;99.90;;;;;;5268074;28;20219;-74
2022/04/11 10:19:12;;;;;;;0.77;0.77;;;15.40;99.90;;;;;;5219263;28;20036;-74
2022/04/11 10:21:45;;;;;;;1.23;1.23;;;15.00;99.90;;;;;;5228617;28;20020;-74
2022/04/11 10:24:39;;;;;;;0.98;0.98;;;14.90;99.90;;;;;;5228779;28;20033;-75
2022/04/11 10:27:25;;;;;;;1.00;1.00;;;17.60;99.90;;;;;;5246973;28;20028;-74
2022/04/11 10:29:57;;;;;;;0.60;0.60;;;19.40;99.90;;;;;;5282604;28;20016;-74
2022/04/11 10:32:30;;;;;;;1.25;1.25;;;18.90;99.90;;;;;;5267628;28;20016;-74
2022/04/11 10:35:05;;;;;;;0.57;0.57;;;18.80;99.90;;;;;;5233550;28;20036;-74
2022/04/11 10:37:39;;;;;;;0.50;0.50;;;19.00;99.90;;;;;;5248744;28;20341;-73
2022/04/11 10:40:22;;;;;;;0.80;0.80;;;20.20;99.60;;;;;;5249001;28;20043;-75
2022/04/11 10:43:15;;;;;;;0.50;0.50;;;19.80;99.90;;;;;;5245496;28;20384;-75
2022/04/11 10:46:03;;;;;;;0.80;0.80;;;20.60;95.60;;;;;;5219999;28;20395;-75
2022/04/11 10:49:05;;;;;;;0.65;0.65;;;20.80;98.30;;;;;;5244987;28;20020;-74
2022/04/11 10:51:37;;;;;;;0.82;0.82;;;22.30;95.70;;;;;;5245176;28;20047;-75
2022/04/11 10:54:22;;;;;;;0.30;0.30;;;23.20;95.30;;;;;;5228463;28;20211;-74
2022/04/11 10:57:01;;;;;;;0.38;0.38;;;24.50;93.60;;;;;;5260221;28;20054;-75
2022/04/11 11:00:10;;;;;;;0.40;0.40;;;24.50;93.30;;;;;;5281405;28;20035;-76
2022/04/11 11:02:53;;;;;;;0.32;0.32;;;24.50;90.90;;;;;;5227623;28;20041;-75
2022/04/11 11:05:41;;;;;;;0.40;0.40;;;25.50;91.10;;;;;;5233954;28;20280;-76
2022/04/11 11:08:16;;;;;;;0.32;0.32;;;26.10;83.60;;;;;;5227849;28;20028;-76
2022/04/11 11:11:01;;;;;;;0.30;0.30;;;23.30;83.90;;;;;;5228231;28;20114;-75
2022/04/11 11:13:42;;;;;;;;;;;24.10;83.30;;;;;;5212446;28;20254;-74
2022/04/11 11:16:14;;;;;;;0.40;0.40;;;24.30;82.00;;;;;;5245482;28;19931;-74
2022/04/11 11:18:49;;;;;;;0.40;0.40;;;23.10;91.70;;;;;;5232259;28;20034;-74
2022/04/11 11:21:31;;;;;;;0.40;0.40;;;24.80;91.40;;;;;;5246763;28;20038;-76
2022/04/11 11:24:10;;;;;;;0.43;0.43;;;24.30;86.20;;;;;;5228886;28;20038;-74
2022/04/11 11:26:52;;;;;;;0.30;0.30;;;24.10;90.20;;;;;;5256367;28;20218;-74
2022/04/11 11:29:32;;;;;;;0.40;0.40;;;26.10;90.20;;;;;;5207811;28;20506;-74
2022/04/11 11:32:12;;;;;;;0.30;0.30;;;26.10;81.50;;;;;;5240052;28;20033;-75
2022/04/11 11:34:51;;;;;;;1.05;1.02;;;25.10;83.20;;;;;;5239644;28;20233;-75
2022/04/11 11:37:28;;;;;;;0.40;0.40;;;25.50;78.80;;;;;;5224108;28;20039;-77
2022/04/11 11:40:04;;;;;;;0.30;0.30;;;26.40;84.20;;;;;;5232708;28;20023;-77
2022/04/11 11:42:37;;;;;;;0.30;0.30;;;27.50;85.70;;;;;;5227623;28;20221;-76
2022/04/11 11:45:26;;;;;;;0.30;0.30;;;28.20;84.10;;;;;;5244783;28;20024;-75
2022/04/11 11:47:59;;;;;;;0.60;0.60;;;27.80;80.00;;;;;;5209174;28;20043;-76
2022/04/11 11:50:31;;;;;;;0.30;0.30;;;27.60;79.60;;;;;;5227286;28;20043;-77
2022/04/11 11:53:06;;;;;;;0.80;0.80;;;26.50;79.80;;;;;;5226790;28;20201;-76
2022/04/11 11:55:51;;;;;;;0.30;0.30;;;26.80;81.50;;;;;;5234919;28;20018;-77
2022/04/11 11:58:38;;;;;;;0.50;0.50;;;25.10;78.70;;;;;;5264455;28;20032;-76
2022/04/11 12:01:15;;;;;;;0.30;0.30;;;22.70;82.10;;;;;;5232494;28;20017;-76
2022/04/11 12:06:38;;;;;;;0.32;0.32;;;25.10;79.80;;;;;;5248896;28;20040;-75
2022/04/11 12:09:14;;;;;;;1.00;1.00;;;25.30;79.20;;;;;;5225588;28;20036;-74
2022/04/11 12:11:46;;;;;;;0.30;0.30;;;26.10;80.50;;;;;;5243375;28;20039;-75
2022/04/11 12:14:20;;;;;;;0.20;0.20;;;25.60;77.40;;;;;;5261069;28;20245;-75
2022/04/11 12:17:02;;;;;;;0.40;0.40;;;25.20;78.90;;;;;;5191978;28;20055;-75
2022/04/11 12:19:38;;;;;;;0.32;0.32;;;25.10;78.10;;;;;;5225857;28;20036;-75
2022/04/11 12:22:14;;;;;;;0.30;0.30;;;25.20;76.50;;;;;;5236579;28;20043;-75
2022/04/11 12:24:48;;;;;;;0.52;0.52;;;25.10;80.10;;;;;;5226039;28;20032;-75
2022/04/11 12:27:24;;;;;;;0.30;0.30;;;25.40;78.80;;;;;;5225458;28;20095;-74
2022/04/11 12:29:58;;;;;;;0.60;0.60;;;25.70;77.90;;;;;;5226803;28;20036;-76
2022/04/11 12:32:32;;;;;;;0.30;0.30;;;25.50;75.20;;;;;;5244436;28;20318;-74
2022/04/11 12:35:18;;;;;;;0.30;0.30;;;24.00;76.60;;;;;;5229302;28;20318;-76
2022/04/11 12:38:07;;;;;;;0.30;0.30;;;23.40;79.40;;;;;;5205416;28;20254;-74
2022/04/11 12:40:44;;;;;;;0.40;0.40;;;20.80;80.20;;;;;;5206744;28;20029;-74
2022/04/11 12:43:16;;;;;;;0.30;0.30;;;21.40;84.00;;;;;;5215898;28;20048;-74
2022/04/11 12:46:07;;;;;;;0.35;0.35;;;21.70;81.10;;;;;;5226347;28;20039;-75
2022/04/11 12:49:01;;;;;;;0.50;0.50;;;22.60;82.70;;;;;;5224407;28;20017;-75
2022/04/11 12:51:33;;;;;;;0.30;0.30;;;22.10;79.30;;;;;;5214525;28;20137;-76
2022/04/11 12:54:11;;;;;;;0.45;0.45;;;22.30;79.20;;;;;;5226728;28;20268;-75
2022/04/11 12:56:49;;;;;;;0.85;0.85;;;21.50;79.20;;;;;;5259424;28;20019;-74
2022/04/11 12:59:32;;;;;;;0.38;0.38;;;22.90;81.10;;;;;;5244625;28;20021;-76
2022/04/11 13:02:15;;;;;;;0.75;0.75;;;23.60;77.20;;;;;;5237750;28;20558;-74
2022/04/11 13:04:52;;;;;;;0.32;0.32;;;23.20;78.30;;;;;;5230618;28;20222;-77
2022/04/11 13:07:26;;;;;;;0.40;0.40;;;22.60;80.60;;;;;;5259252;28;20099;-74
2022/04/11 13:10:03;;;;;;;0.60;0.60;;;22.70;78.40;;;;;;5208873;28;20032;-75
2022/04/11 13:12:35;;;;;;;0.30;0.30;;;22.80;79.20;;;;;;5242273;28;20027;-75
2022/04/11 13:15:07;;;;;;;0.30;0.30;;;22.70;80.00;;;;;;5208171;28;20033;-74
2022/04/11 13:20:30;;;;;;;0.38;0.38;;;21.50;82.00;;;;;;5229166;28;20032;-75
2022/04/11 13:23:01;;;;;;;0.85;0.85;;;21.80;79.30;;;;;;5243093;28;20054;-75
2022/04/11 13:25:33;;;;;;;0.50;0.50;;;21.30;82.70;;;;;;5242244;28;20041;-75
2022/04/11 13:28:04;;;;;;;0.50;0.50;;;21.30;81.40;;;;;;5225691;28;20012;-75
2022/04/11 13:30:41;;;;;;;0.70;0.70;;;20.70;82.30;;;;;;5243230;28;20047;-75
2022/04/11 13:33:18;;;;;;;0.50;0.50;;;20.70;83.30;;;;;;5226280;28;20024;-74
2022/04/11 13:35:56;;;;;;;0.98;0.98;;;20.10;83.10;;;;;;5208178;28;20027;-74
2022/04/11 13:38:28;;;;;;;0.55;0.55;;;19.00;84.00;;;;;;5210297;28;20042;-75
2022/04/11 13:41:02;;;;;;;0.50;0.50;;;18.70;87.50;;;;;;5245836;28;20040;-75
2022/04/11 13:43:36;;;;;;;0.60;0.60;;;18.40;85.70;;;;;;5243063;28;20310;-74